Austin, Missouri
Current Conditions -  °F | °C
As of 12:53 PM on Friday 28 Nov 2014 (Local Time) from KOJC Reporting Station
Clear Clear  
Wind Chill: 55°   Ceiling: Unl
Heat Index: 55°   Visibility: 10mi
Dew Point: 31°   Wind: 18mph
Humidity: 40%   Direction: 210°SSW
Pressure: 29.87"   Gusts: 24mph
Location:  38.5148°N, 94.3768°W
Report Text: KOJC 281853Z 21016G21KT 10SM CLR 13/M01 A2987 RMK AO2 SLP117 T01281006
Loading
Personal Weather Stations






























Interactive Weather Map New forecast layout! Learn more

10-Day Weather Forecast

Advertisements
Track Severe Weather on mobile